sensor_id;sensor_type;location;lat;lon;timestamp;P1;durP1;ratioP1;P2;durP2;ratioP2
54883;SDS011;40776;52.880;6.016;2023-08-01T00:00:50;14.93;;;4.70;;
54883;SDS011;40776;52.880;6.016;2023-08-01T00:03:16;13.32;;;4.50;;
54883;SDS011;40776;52.880;6.016;2023-08-01T00:05:44;16.38;;;4.78;;
54883;SDS011;40776;52.880;6.016;2023-08-01T00:08:13;18.88;;;4.60;;
54883;SDS011;40776;52.880;6.016;2023-08-01T00:10:40;15.43;;;5.25;;
54883;SDS011;40776;52.880;6.016;2023-08-01T00:13:06;17.85;;;5.32;;
54883;SDS011;40776;52.880;6.016;2023-08-01T00:15:33;11.82;;;4.32;;
54883;SDS011;40776;52.880;6.016;2023-08-01T00:17:59;17.35;;;4.88;;
54883;SDS011;40776;52.880;6.016;2023-08-01T00:20:27;14.75;;;5.03;;
54883;SDS011;40776;52.880;6.016;2023-08-01T00:22:53;17.90;;;5.03;;
54883;SDS011;40776;52.880;6.016;2023-08-01T00:25:19;13.18;;;4.55;;
54883;SDS011;40776;52.880;6.016;2023-08-01T00:27:45;28.98;;;6.32;;
54883;SDS011;40776;52.880;6.016;2023-08-01T00:30:11;15.18;;;5.22;;
54883;SDS011;40776;52.880;6.016;2023-08-01T00:32:37;12.32;;;4.75;;
54883;SDS011;40776;52.880;6.016;2023-08-01T00:35:04;20.10;;;6.43;;
54883;SDS011;40776;52.880;6.016;2023-08-01T00:37:30;18.05;;;5.25;;
54883;SDS011;40776;52.880;6.016;2023-08-01T00:39:56;19.70;;;6.07;;
54883;SDS011;40776;52.880;6.016;2023-08-01T00:42:22;20.33;;;4.90;;
54883;SDS011;40776;52.880;6.016;2023-08-01T00:44:48;14.25;;;5.30;;
54883;SDS011;40776;52.880;6.016;2023-08-01T00:47:16;13.38;;;5.20;;
54883;SDS011;40776;52.880;6.016;2023-08-01T00:49:42;11.88;;;4.38;;
54883;SDS011;40776;52.880;6.016;2023-08-01T00:52:08;11.88;;;4.13;;
54883;SDS011;40776;52.880;6.016;2023-08-01T00:54:35;15.70;;;4.20;;
54883;SDS011;40776;52.880;6.016;2023-08-01T00:57:04;19.83;;;6.30;;
54883;SDS011;40776;52.880;6.016;2023-08-01T00:59:31;14.65;;;4.38;;
54883;SDS011;40776;52.880;6.016;2023-08-01T01:01:58;12.48;;;4.50;;
54883;SDS011;40776;52.880;6.016;2023-08-01T01:04:25;18.20;;;5.15;;
54883;SDS011;40776;52.880;6.016;2023-08-01T01:06:52;9.70;;;3.97;;
54883;SDS011;40776;52.880;6.016;2023-08-01T01:09:23;11.80;;;4.65;;
54883;SDS011;40776;52.880;6.016;2023-08-01T01:11:49;16.02;;;4.95;;
54883;SDS011;40776;52.880;6.016;2023-08-01T01:14:15;12.73;;;4.60;;
54883;SDS011;40776;52.880;6.016;2023-08-01T01:16:41;12.20;;;4.65;;
54883;SDS011;40776;52.880;6.016;2023-08-01T01:19:08;17.42;;;5.07;;
54883;SDS011;40776;52.880;6.016;2023-08-01T01:21:34;11.55;;;4.50;;
54883;SDS011;40776;52.880;6.016;2023-08-01T01:24:02;16.50;;;5.10;;
54883;SDS011;40776;52.880;6.016;2023-08-01T01:26:29;15.32;;;5.85;;
54883;SDS011;40776;52.880;6.016;2023-08-01T01:28:55;17.10;;;5.22;;
54883;SDS011;40776;52.880;6.016;2023-08-01T01:31:21;17.42;;;6.03;;
54883;SDS011;40776;52.880;6.016;2023-08-01T01:33:47;14.88;;;5.35;;
54883;SDS011;40776;52.880;6.016;2023-08-01T01:36:14;14.75;;;5.60;;
54883;SDS011;40776;52.880;6.016;2023-08-01T01:38:40;16.63;;;5.25;;
54883;SDS011;40776;52.880;6.016;2023-08-01T01:41:06;17.77;;;5.78;;
54883;SDS011;40776;52.880;6.016;2023-08-01T01:43:32;18.50;;;7.10;;
54883;SDS011;40776;52.880;6.016;2023-08-01T01:45:58;19.52;;;6.28;;
54883;SDS011;40776;52.880;6.016;2023-08-01T01:48:24;14.25;;;5.15;;
54883;SDS011;40776;52.880;6.016;2023-08-01T01:50:50;13.20;;;5.13;;
54883;SDS011;40776;52.880;6.016;2023-08-01T01:53:16;18.50;;;5.82;;
54883;SDS011;40776;52.880;6.016;2023-08-01T01:55:42;17.95;;;6.25;;
54883;SDS011;40776;52.880;6.016;2023-08-01T01:58:08;19.77;;;5.72;;
54883;SDS011;40776;52.880;6.016;2023-08-01T02:00:34;17.85;;;6.63;;
54883;SDS011;40776;52.880;6.016;2023-08-01T02:03:00;22.33;;;6.40;;
54883;SDS011;40776;52.880;6.016;2023-08-01T02:05:28;19.35;;;6.72;;
54883;SDS011;40776;52.880;6.016;2023-08-01T02:07:54;17.45;;;6.32;;
54883;SDS011;40776;52.880;6.016;2023-08-01T02:10:20;18.67;;;5.93;;
54883;SDS011;40776;52.880;6.016;2023-08-01T02:12:46;20.15;;;6.28;;
54883;SDS011;40776;52.880;6.016;2023-08-01T02:15:12;15.13;;;6.35;;
54883;SDS011;40776;52.880;6.016;2023-08-01T02:17:38;19.35;;;6.60;;
54883;SDS011;40776;52.880;6.016;2023-08-01T02:20:05;16.40;;;5.50;;
54883;SDS011;40776;52.880;6.016;2023-08-01T02:22:32;18.95;;;6.10;;
54883;SDS011;40776;52.880;6.016;2023-08-01T02:24:58;19.25;;;6.38;;
54883;SDS011;40776;52.880;6.016;2023-08-01T02:27:24;21.88;;;6.57;;
54883;SDS011;40776;52.880;6.016;2023-08-01T02:29:50;13.23;;;4.47;;
54883;SDS011;40776;52.880;6.016;2023-08-01T02:32:16;13.10;;;5.07;;
54883;SDS011;40776;52.880;6.016;2023-08-01T02:34:43;13.30;;;4.20;;
54883;SDS011;40776;52.880;6.016;2023-08-01T02:37:09;9.48;;;3.28;;
54883;SDS011;40776;52.880;6.016;2023-08-01T02:39:35;12.30;;;3.55;;
54883;SDS011;40776;52.880;6.016;2023-08-01T02:42:01;6.97;;;2.13;;
54883;SDS011;40776;52.880;6.016;2023-08-01T02:44:28;5.60;;;1.73;;
54883;SDS011;40776;52.880;6.016;2023-08-01T02:46:54;4.63;;;1.23;;
54883;SDS011;40776;52.880;6.016;2023-08-01T02:49:20;3.67;;;0.90;;
54883;SDS011;40776;52.880;6.016;2023-08-01T02:51:46;3.78;;;1.02;;
54883;SDS011;40776;52.880;6.016;2023-08-01T02:54:12;2.25;;;1.17;;
54883;SDS011;40776;52.880;6.016;2023-08-01T02:56:38;6.32;;;1.25;;
54883;SDS011;40776;52.880;6.016;2023-08-01T02:59:06;4.43;;;1.48;;
54883;SDS011;40776;52.880;6.016;2023-08-01T03:01:34;2.13;;;0.85;;
54883;SDS011;40776;52.880;6.016;2023-08-01T03:04:01;3.38;;;0.90;;
54883;SDS011;40776;52.880;6.016;2023-08-01T03:06:28;2.30;;;1.20;;
54883;SDS011;40776;52.880;6.016;2023-08-01T03:08:54;6.72;;;1.80;;
54883;SDS011;40776;52.880;6.016;2023-08-01T03:11:20;7.00;;;1.38;;
54883;SDS011;40776;52.880;6.016;2023-08-01T03:13:46;4.68;;;1.05;;
54883;SDS011;40776;52.880;6.016;2023-08-01T03:16:12;4.60;;;1.25;;
54883;SDS011;40776;52.880;6.016;2023-08-01T03:18:38;4.45;;;1.40;;
54883;SDS011;40776;52.880;6.016;2023-08-01T03:21:04;6.78;;;1.35;;
54883;SDS011;40776;52.880;6.016;2023-08-01T03:23:30;2.40;;;1.08;;
54883;SDS011;40776;52.880;6.016;2023-08-01T03:25:56;4.75;;;1.02;;
54883;SDS011;40776;52.880;6.016;2023-08-01T03:28:22;7.40;;;1.70;;
54883;SDS011;40776;52.880;6.016;2023-08-01T03:30:48;8.20;;;1.30;;
54883;SDS011;40776;52.880;6.016;2023-08-01T03:33:15;4.05;;;1.50;;
54883;SDS011;40776;52.880;6.016;2023-08-01T03:35:42;6.03;;;1.27;;
54883;SDS011;40776;52.880;6.016;2023-08-01T03:38:08;3.30;;;1.20;;
54883;SDS011;40776;52.880;6.016;2023-08-01T03:40:34;5.65;;;1.38;;
54883;SDS011;40776;52.880;6.016;2023-08-01T03:43:00;6.15;;;1.48;;
54883;SDS011;40776;52.880;6.016;2023-08-01T03:45:26;6.28;;;1.30;;
54883;SDS011;40776;52.880;6.016;2023-08-01T03:47:52;8.07;;;1.67;;
54883;SDS011;40776;52.880;6.016;2023-08-01T03:50:20;5.25;;;1.50;;
54883;SDS011;40776;52.880;6.016;2023-08-01T03:52:46;6.00;;;1.65;;
54883;SDS011;40776;52.880;6.016;2023-08-01T03:55:12;4.25;;;1.83;;
54883;SDS011;40776;52.880;6.016;2023-08-01T03:57:38;3.38;;;1.52;;
54883;SDS011;40776;52.880;6.016;2023-08-01T04:00:07;5.88;;;2.00;;
54883;SDS011;40776;52.880;6.016;2023-08-01T04:02:40;5.57;;;1.65;;
54883;SDS011;40776;52.880;6.016;2023-08-01T04:05:07;3.67;;;1.63;;
54883;SDS011;40776;52.880;6.016;2023-08-01T04:07:34;5.20;;;2.15;;
54883;SDS011;40776;52.880;6.016;2023-08-01T04:10:01;6.93;;;1.60;;
54883;SDS011;40776;52.880;6.016;2023-08-01T04:12:27;8.10;;;2.15;;
54883;SDS011;40776;52.880;6.016;2023-08-01T04:14:53;5.28;;;1.70;;
54883;SDS011;40776;52.880;6.016;2023-08-01T04:17:19;7.03;;;2.03;;
54883;SDS011;40776;52.880;6.016;2023-08-01T04:19:45;8.13;;;2.67;;
54883;SDS011;40776;52.880;6.016;2023-08-01T04:22:11;8.00;;;2.03;;
54883;SDS011;40776;52.880;6.016;2023-08-01T04:24:37;5.22;;;2.50;;
54883;SDS011;40776;52.880;6.016;2023-08-01T04:27:03;6.50;;;2.25;;
54883;SDS011;40776;52.880;6.016;2023-08-01T04:29:29;5.13;;;2.03;;
54883;SDS011;40776;52.880;6.016;2023-08-01T04:31:56;8.85;;;1.80;;
54883;SDS011;40776;52.880;6.016;2023-08-01T04:34:22;6.20;;;2.58;;
54883;SDS011;40776;52.880;6.016;2023-08-01T04:36:48;5.65;;;2.00;;
54883;SDS011;40776;52.880;6.016;2023-08-01T04:39:14;6.75;;;1.92;;
54883;SDS011;40776;52.880;6.016;2023-08-01T04:41:40;8.18;;;2.58;;
54883;SDS011;40776;52.880;6.016;2023-08-01T04:44:06;5.20;;;2.20;;
54883;SDS011;40776;52.880;6.016;2023-08-01T04:46:32;6.68;;;2.10;;
54883;SDS011;40776;52.880;6.016;2023-08-01T04:48:58;7.82;;;2.22;;
54883;SDS011;40776;52.880;6.016;2023-08-01T04:51:25;9.90;;;2.50;;
54883;SDS011;40776;52.880;6.016;2023-08-01T04:53:51;11.50;;;2.15;;
54883;SDS011;40776;52.880;6.016;2023-08-01T04:56:17;8.18;;;2.45;;
54883;SDS011;40776;52.880;6.016;2023-08-01T04:58:43;5.25;;;2.67;;
54883;SDS011;40776;52.880;6.016;2023-08-01T05:01:09;5.53;;;2.42;;
54883;SDS011;40776;52.880;6.016;2023-08-01T05:03:35;5.53;;;2.60;;
54883;SDS011;40776;52.880;6.016;2023-08-01T05:06:01;8.48;;;2.22;;
54883;SDS011;40776;52.880;6.016;2023-08-01T05:08:27;7.78;;;2.72;;
54883;SDS011;40776;52.880;6.016;2023-08-01T05:10:53;5.85;;;2.50;;
54883;SDS011;40776;52.880;6.016;2023-08-01T05:13:19;7.88;;;3.30;;
54883;SDS011;40776;52.880;6.016;2023-08-01T05:15:46;4.38;;;2.30;;
54883;SDS011;40776;52.880;6.016;2023-08-01T05:18:13;9.77;;;2.35;;
54883;SDS011;40776;52.880;6.016;2023-08-01T05:20:39;9.23;;;3.17;;
54883;SDS011;40776;52.880;6.016;2023-08-01T05:23:05;7.82;;;2.47;;
54883;SDS011;40776;52.880;6.016;2023-08-01T05:25:31;6.43;;;2.10;;
54883;SDS011;40776;52.880;6.016;2023-08-01T05:27:57;4.63;;;2.10;;
54883;SDS011;40776;52.880;6.016;2023-08-01T05:30:24;7.80;;;2.22;;
54883;SDS011;40776;52.880;6.016;2023-08-01T05:32:50;7.43;;;2.10;;
54883;SDS011;40776;52.880;6.016;2023-08-01T05:35:16;5.15;;;2.50;;
54883;SDS011;40776;52.880;6.016;2023-08-01T05:37:43;6.47;;;2.40;;
54883;SDS011;40776;52.880;6.016;2023-08-01T05:40:09;4.10;;;2.00;;
54883;SDS011;40776;52.880;6.016;2023-08-01T05:42:35;5.45;;;2.38;;
54883;SDS011;40776;52.880;6.016;2023-08-01T05:45:01;8.48;;;2.60;;
54883;SDS011;40776;52.880;6.016;2023-08-01T05:47:30;10.55;;;3.38;;
54883;SDS011;40776;52.880;6.016;2023-08-01T05:49:56;6.68;;;2.13;;
54883;SDS011;40776;52.880;6.016;2023-08-01T05:52:22;8.63;;;2.00;;
54883;SDS011;40776;52.880;6.016;2023-08-01T05:54:49;8.25;;;2.10;;
54883;SDS011;40776;52.880;6.016;2023-08-01T05:57:15;10.45;;;2.40;;
54883;SDS011;40776;52.880;6.016;2023-08-01T05:59:41;6.07;;;1.90;;
54883;SDS011;40776;52.880;6.016;2023-08-01T06:02:07;7.20;;;2.22;;
54883;SDS011;40776;52.880;6.016;2023-08-01T06:04:33;5.70;;;2.20;;
54883;SDS011;40776;52.880;6.016;2023-08-01T06:06:59;6.40;;;2.90;;
54883;SDS011;40776;52.880;6.016;2023-08-01T06:09:25;3.20;;;1.63;;
54883;SDS011;40776;52.880;6.016;2023-08-01T06:11:51;7.75;;;2.00;;
54883;SDS011;40776;52.880;6.016;2023-08-01T06:14:17;6.13;;;1.80;;
54883;SDS011;40776;52.880;6.016;2023-08-01T06:16:43;5.93;;;1.65;;
54883;SDS011;40776;52.880;6.016;2023-08-01T06:19:09;7.68;;;1.70;;
54883;SDS011;40776;52.880;6.016;2023-08-01T06:21:35;5.28;;;1.70;;
54883;SDS011;40776;52.880;6.016;2023-08-01T06:24:02;7.30;;;1.65;;
54883;SDS011;40776;52.880;6.016;2023-08-01T06:26:28;5.38;;;2.17;;
54883;SDS011;40776;52.880;6.016;2023-08-01T06:28:54;4.32;;;0.90;;
54883;SDS011;40776;52.880;6.016;2023-08-01T06:31:20;4.55;;;1.30;;
54883;SDS011;40776;52.880;6.016;2023-08-01T06:33:46;3.30;;;0.95;;
54883;SDS011;40776;52.880;6.016;2023-08-01T06:36:13;8.90;;;1.15;;
54883;SDS011;40776;52.880;6.016;2023-08-01T06:38:41;6.32;;;1.77;;
54883;SDS011;40776;52.880;6.016;2023-08-01T06:41:07;4.43;;;0.90;;
54883;SDS011;40776;52.880;6.016;2023-08-01T06:43:33;8.57;;;1.20;;
54883;SDS011;40776;52.880;6.016;2023-08-01T06:46:02;5.32;;;1.10;;
54883;SDS011;40776;52.880;6.016;2023-08-01T06:48:28;8.05;;;0.95;;
54883;SDS011;40776;52.880;6.016;2023-08-01T06:50:54;6.05;;;0.90;;
54883;SDS011;40776;52.880;6.016;2023-08-01T06:53:20;6.65;;;1.25;;
54883;SDS011;40776;52.880;6.016;2023-08-01T06:55:46;10.52;;;1.95;;
54883;SDS011;40776;52.880;6.016;2023-08-01T06:58:12;7.78;;;1.40;;
54883;SDS011;40776;52.880;6.016;2023-08-01T07:00:38;9.85;;;1.35;;
54883;SDS011;40776;52.880;6.016;2023-08-01T07:03:04;7.90;;;1.75;;
54883;SDS011;40776;52.880;6.016;2023-08-01T07:05:31;4.70;;;1.25;;
54883;SDS011;40776;52.880;6.016;2023-08-01T07:07:57;11.18;;;2.45;;
54883;SDS011;40776;52.880;6.016;2023-08-01T07:10:23;5.93;;;1.60;;
54883;SDS011;40776;52.880;6.016;2023-08-01T07:12:49;6.10;;;1.50;;
54883;SDS011;40776;52.880;6.016;2023-08-01T07:15:15;10.63;;;2.25;;
54883;SDS011;40776;52.880;6.016;2023-08-01T07:17:41;8.75;;;1.80;;
54883;SDS011;40776;52.880;6.016;2023-08-01T07:20:09;10.45;;;2.15;;
54883;SDS011;40776;52.880;6.016;2023-08-01T07:22:36;6.30;;;1.80;;
54883;SDS011;40776;52.880;6.016;2023-08-01T07:25:02;5.93;;;1.95;;
54883;SDS011;40776;52.880;6.016;2023-08-01T07:27:28;5.85;;;1.65;;
54883;SDS011;40776;52.880;6.016;2023-08-01T07:29:54;3.92;;;1.88;;
54883;SDS011;40776;52.880;6.016;2023-08-01T07:32:20;6.30;;;1.80;;
54883;SDS011;40776;52.880;6.016;2023-08-01T07:34:46;6.88;;;1.80;;
54883;SDS011;40776;52.880;6.016;2023-08-01T07:37:12;7.18;;;1.63;;
54883;SDS011;40776;52.880;6.016;2023-08-01T07:39:38;6.22;;;1.42;;
54883;SDS011;40776;52.880;6.016;2023-08-01T07:42:04;5.38;;;1.92;;
54883;SDS011;40776;52.880;6.016;2023-08-01T07:44:30;6.68;;;1.80;;
54883;SDS011;40776;52.880;6.016;2023-08-01T07:46:56;5.88;;;1.80;;
54883;SDS011;40776;52.880;6.016;2023-08-01T07:49:23;6.82;;;1.55;;
54883;SDS011;40776;52.880;6.016;2023-08-01T07:51:49;8.98;;;2.00;;
54883;SDS011;40776;52.880;6.016;2023-08-01T07:54:16;5.30;;;1.48;;
54883;SDS011;40776;52.880;6.016;2023-08-01T07:56:42;6.13;;;2.22;;
54883;SDS011;40776;52.880;6.016;2023-08-01T07:59:08;5.18;;;1.80;;
54883;SDS011;40776;52.880;6.016;2023-08-01T08:01:35;5.78;;;1.92;;
54883;SDS011;40776;52.880;6.016;2023-08-01T08:04:01;9.23;;;2.33;;
54883;SDS011;40776;52.880;6.016;2023-08-01T08:06:27;10.65;;;2.80;;
54883;SDS011;40776;52.880;6.016;2023-08-01T08:08:53;8.18;;;3.80;;
54883;SDS011;40776;52.880;6.016;2023-08-01T08:11:19;11.02;;;3.50;;
54883;SDS011;40776;52.880;6.016;2023-08-01T08:13:45;10.32;;;3.10;;
54883;SDS011;40776;52.880;6.016;2023-08-01T08:16:11;12.65;;;3.92;;
54883;SDS011;40776;52.880;6.016;2023-08-01T08:18:37;10.32;;;3.60;;
54883;SDS011;40776;52.880;6.016;2023-08-01T08:21:04;8.48;;;3.20;;
54883;SDS011;40776;52.880;6.016;2023-08-01T08:23:30;9.23;;;3.10;;
54883;SDS011;40776;52.880;6.016;2023-08-01T08:25:56;9.07;;;2.85;;
54883;SDS011;40776;52.880;6.016;2023-08-01T08:28:32;7.88;;;2.58;;
54883;SDS011;40776;52.880;6.016;2023-08-01T08:30:58;11.50;;;3.72;;
54883;SDS011;40776;52.880;6.016;2023-08-01T08:33:24;8.07;;;3.42;;
54883;SDS011;40776;52.880;6.016;2023-08-01T08:35:50;10.90;;;3.53;;
54883;SDS011;40776;52.880;6.016;2023-08-01T08:38:17;8.63;;;3.30;;
54883;SDS011;40776;52.880;6.016;2023-08-01T08:40:48;10.27;;;3.22;;
54883;SDS011;40776;52.880;6.016;2023-08-01T08:43:18;16.15;;;4.10;;
54883;SDS011;40776;52.880;6.016;2023-08-01T08:45:44;11.25;;;3.92;;
54883;SDS011;40776;52.880;6.016;2023-08-01T08:48:12;6.57;;;2.72;;
54883;SDS011;40776;52.880;6.016;2023-08-01T08:50:38;7.22;;;2.28;;
54883;SDS011;40776;52.880;6.016;2023-08-01T08:53:05;5.13;;;2.17;;
54883;SDS011;40776;52.880;6.016;2023-08-01T08:55:37;6.60;;;2.22;;
54883;SDS011;40776;52.880;6.016;2023-08-01T08:58:04;5.68;;;2.30;;
54883;SDS011;40776;52.880;6.016;2023-08-01T09:00:30;7.40;;;1.90;;
54883;SDS011;40776;52.880;6.016;2023-08-01T09:02:57;3.88;;;1.42;;
54883;SDS011;40776;52.880;6.016;2023-08-01T09:05:24;6.32;;;2.38;;
54883;SDS011;40776;52.880;6.016;2023-08-01T09:07:52;8.40;;;1.35;;
54883;SDS011;40776;52.880;6.016;2023-08-01T09:10:20;9.73;;;1.70;;
54883;SDS011;40776;52.880;6.016;2023-08-01T09:12:46;8.00;;;1.33;;
54883;SDS011;40776;52.880;6.016;2023-08-01T09:15:12;5.88;;;1.80;;
54883;SDS011;40776;52.880;6.016;2023-08-01T09:17:52;5.47;;;1.30;;
54883;SDS011;40776;52.880;6.016;2023-08-01T09:20:20;5.05;;;1.35;;
54883;SDS011;40776;52.880;6.016;2023-08-01T09:22:46;7.72;;;2.03;;
54883;SDS011;40776;52.880;6.016;2023-08-01T09:25:13;8.68;;;2.30;;
54883;SDS011;40776;52.880;6.016;2023-08-01T09:27:39;9.43;;;2.08;;
54883;SDS011;40776;52.880;6.016;2023-08-01T09:30:09;4.88;;;1.60;;
54883;SDS011;40776;52.880;6.016;2023-08-01T09:32:36;6.18;;;2.35;;
54883;SDS011;40776;52.880;6.016;2023-08-01T09:35:03;9.25;;;2.47;;
54883;SDS011;40776;52.880;6.016;2023-08-01T09:37:41;8.48;;;1.88;;
54883;SDS011;40776;52.880;6.016;2023-08-01T09:40:08;6.57;;;1.50;;
54883;SDS011;40776;52.880;6.016;2023-08-01T09:42:38;6.75;;;1.92;;
54883;SDS011;40776;52.880;6.016;2023-08-01T09:45:11;6.00;;;1.50;;
54883;SDS011;40776;52.880;6.016;2023-08-01T09:47:39;4.18;;;0.90;;
54883;SDS011;40776;52.880;6.016;2023-08-01T09:50:05;9.02;;;2.25;;
54883;SDS011;40776;52.880;6.016;2023-08-01T09:52:32;5.63;;;1.80;;
54883;SDS011;40776;52.880;6.016;2023-08-01T09:54:58;5.47;;;1.27;;
54883;SDS011;40776;52.880;6.016;2023-08-01T09:57:25;7.95;;;1.70;;
54883;SDS011;40776;52.880;6.016;2023-08-01T09:59:56;5.93;;;1.73;;
54883;SDS011;40776;52.880;6.016;2023-08-01T10:02:23;5.78;;;1.33;;
54883;SDS011;40776;52.880;6.016;2023-08-01T10:04:50;6.95;;;2.00;;
54883;SDS011;40776;52.880;6.016;2023-08-01T10:07:19;12.80;;;2.72;;
54883;SDS011;40776;52.880;6.016;2023-08-01T10:09:46;10.35;;;2.00;;
54883;SDS011;40776;52.880;6.016;2023-08-01T10:12:13;8.10;;;2.03;;
54883;SDS011;40776;52.880;6.016;2023-08-01T10:14:42;3.97;;;1.33;;
54883;SDS011;40776;52.880;6.016;2023-08-01T10:17:08;6.03;;;1.13;;
54883;SDS011;40776;52.880;6.016;2023-08-01T10:19:36;6.40;;;1.60;;
54883;SDS011;40776;52.880;6.016;2023-08-01T10:22:04;8.60;;;1.70;;
54883;SDS011;40776;52.880;6.016;2023-08-01T10:24:32;10.75;;;2.13;;
54883;SDS011;40776;52.880;6.016;2023-08-01T10:27:10;10.75;;;2.35;;
54883;SDS011;40776;52.880;6.016;2023-08-01T10:29:37;13.85;;;2.63;;
54883;SDS011;40776;52.880;6.016;2023-08-01T10:32:03;9.50;;;1.83;;
54883;SDS011;40776;52.880;6.016;2023-08-01T10:34:32;11.65;;;1.92;;
54883;SDS011;40776;52.880;6.016;2023-08-01T10:36:58;8.80;;;1.60;;
54883;SDS011;40776;52.880;6.016;2023-08-01T10:39:25;9.68;;;1.60;;
54883;SDS011;40776;52.880;6.016;2023-08-01T10:42:01;6.03;;;1.30;;
54883;SDS011;40776;52.880;6.016;2023-08-01T10:44:27;13.02;;;2.22;;
54883;SDS011;40776;52.880;6.016;2023-08-01T10:49:37;12.98;;;1.73;;
54883;SDS011;40776;52.880;6.016;2023-08-01T10:52:03;6.22;;;1.45;;
54883;SDS011;40776;52.880;6.016;2023-08-01T10:54:42;5.78;;;1.45;;
54883;SDS011;40776;52.880;6.016;2023-08-01T10:57:08;4.70;;;1.10;;
54883;SDS011;40776;52.880;6.016;2023-08-01T10:59:34;5.50;;;1.20;;
54883;SDS011;40776;52.880;6.016;2023-08-01T11:02:00;9.63;;;1.75;;
54883;SDS011;40776;52.880;6.016;2023-08-01T11:04:26;5.85;;;1.02;;
54883;SDS011;40776;52.880;6.016;2023-08-01T11:06:55;4.40;;;1.50;;
54883;SDS011;40776;52.880;6.016;2023-08-01T11:09:22;6.55;;;1.27;;
54883;SDS011;40776;52.880;6.016;2023-08-01T11:11:52;6.78;;;1.25;;
54883;SDS011;40776;52.880;6.016;2023-08-01T11:14:23;6.63;;;1.33;;
54883;SDS011;40776;52.880;6.016;2023-08-01T11:16:50;4.22;;;1.67;;
54883;SDS011;40776;52.880;6.016;2023-08-01T11:21:48;7.15;;;1.30;;
54883;SDS011;40776;52.880;6.016;2023-08-01T11:24:15;6.82;;;1.50;;
54883;SDS011;40776;52.880;6.016;2023-08-01T11:26:43;7.35;;;2.40;;
54883;SDS011;40776;52.880;6.016;2023-08-01T11:29:09;8.40;;;1.73;;
54883;SDS011;40776;52.880;6.016;2023-08-01T11:31:36;6.68;;;1.80;;
54883;SDS011;40776;52.880;6.016;2023-08-01T11:34:02;10.00;;;2.10;;
54883;SDS011;40776;52.880;6.016;2023-08-01T11:36:28;6.70;;;1.25;;
54883;SDS011;40776;52.880;6.016;2023-08-01T11:38:58;7.05;;;1.45;;
54883;SDS011;40776;52.880;6.016;2023-08-01T11:41:25;9.98;;;1.55;;
54883;SDS011;40776;52.880;6.016;2023-08-01T11:43:52;4.28;;;1.80;;
54883;SDS011;40776;52.880;6.016;2023-08-01T11:46:20;5.45;;;2.20;;
54883;SDS011;40776;52.880;6.016;2023-08-01T11:48:47;6.18;;;1.52;;
54883;SDS011;40776;52.880;6.016;2023-08-01T11:51:15;11.55;;;2.45;;
54883;SDS011;40776;52.880;6.016;2023-08-01T11:53:41;11.77;;;1.55;;
54883;SDS011;40776;52.880;6.016;2023-08-01T11:56:07;7.32;;;1.65;;
54883;SDS011;40776;52.880;6.016;2023-08-01T11:58:36;8.00;;;1.60;;
54883;SDS011;40776;52.880;6.016;2023-08-01T12:01:03;3.17;;;0.93;;
54883;SDS011;40776;52.880;6.016;2023-08-01T12:03:29;1.58;;;0.70;;
54883;SDS011;40776;52.880;6.016;2023-08-01T12:06:03;4.50;;;1.08;;
54883;SDS011;40776;52.880;6.016;2023-08-01T12:08:31;8.05;;;1.60;;
54883;SDS011;40776;52.880;6.016;2023-08-01T12:10:57;3.95;;;1.40;;
54883;SDS011;40776;52.880;6.016;2023-08-01T12:13:24;11.25;;;2.63;;
54883;SDS011;40776;52.880;6.016;2023-08-01T12:15:51;11.05;;;1.70;;
54883;SDS011;40776;52.880;6.016;2023-08-01T12:18:23;10.70;;;2.90;;
54883;SDS011;40776;52.880;6.016;2023-08-01T12:20:50;6.47;;;2.13;;
54883;SDS011;40776;52.880;6.016;2023-08-01T12:23:16;9.95;;;1.70;;
54883;SDS011;40776;52.880;6.016;2023-08-01T12:25:42;7.90;;;1.60;;
54883;SDS011;40776;52.880;6.016;2023-08-01T12:28:08;3.80;;;1.38;;
54883;SDS011;40776;52.880;6.016;2023-08-01T12:30:34;5.57;;;1.90;;
54883;SDS011;40776;52.880;6.016;2023-08-01T12:33:00;6.05;;;1.70;;
54883;SDS011;40776;52.880;6.016;2023-08-01T12:35:27;6.30;;;2.05;;
54883;SDS011;40776;52.880;6.016;2023-08-01T12:37:53;5.15;;;2.30;;
54883;SDS011;40776;52.880;6.016;2023-08-01T12:40:19;7.78;;;2.33;;
54883;SDS011;40776;52.880;6.016;2023-08-01T12:42:46;10.57;;;2.78;;
54883;SDS011;40776;52.880;6.016;2023-08-01T12:45:12;8.10;;;2.40;;
54883;SDS011;40776;52.880;6.016;2023-08-01T12:47:39;8.57;;;2.10;;
54883;SDS011;40776;52.880;6.016;2023-08-01T12:50:05;6.43;;;2.15;;
54883;SDS011;40776;52.880;6.016;2023-08-01T12:52:31;6.70;;;1.60;;
54883;SDS011;40776;52.880;6.016;2023-08-01T12:54:57;5.97;;;1.45;;
54883;SDS011;40776;52.880;6.016;2023-08-01T12:57:23;6.10;;;1.20;;
54883;SDS011;40776;52.880;6.016;2023-08-01T12:59:49;4.68;;;0.98;;
54883;SDS011;40776;52.880;6.016;2023-08-01T13:02:15;2.22;;;0.93;;
54883;SDS011;40776;52.880;6.016;2023-08-01T13:04:41;5.28;;;1.27;;
54883;SDS011;40776;52.880;6.016;2023-08-01T13:07:07;6.05;;;1.65;;
54883;SDS011;40776;52.880;6.016;2023-08-01T13:09:33;8.88;;;1.13;;
54883;SDS011;40776;52.880;6.016;2023-08-01T13:11:59;2.08;;;0.60;;
54883;SDS011;40776;52.880;6.016;2023-08-01T13:14:26;2.55;;;0.98;;
54883;SDS011;40776;52.880;6.016;2023-08-01T13:16:52;2.20;;;0.85;;
54883;SDS011;40776;52.880;6.016;2023-08-01T13:19:18;2.30;;;0.90;;
54883;SDS011;40776;52.880;6.016;2023-08-01T13:21:44;3.20;;;1.02;;
54883;SDS011;40776;52.880;6.016;2023-08-01T13:24:10;6.88;;;1.20;;
54883;SDS011;40776;52.880;6.016;2023-08-01T13:26:36;3.38;;;1.50;;
54883;SDS011;40776;52.880;6.016;2023-08-01T13:29:02;3.55;;;0.82;;
54883;SDS011;40776;52.880;6.016;2023-08-01T13:31:28;17.50;;;1.92;;
54883;SDS011;40776;52.880;6.016;2023-08-01T13:33:55;3.80;;;1.05;;
54883;SDS011;40776;52.880;6.016;2023-08-01T13:36:21;5.38;;;1.45;;
54883;SDS011;40776;52.880;6.016;2023-08-01T13:38:47;7.90;;;1.70;;
54883;SDS011;40776;52.880;6.016;2023-08-01T13:41:14;5.93;;;1.67;;
54883;SDS011;40776;52.880;6.016;2023-08-01T13:43:43;6.05;;;1.50;;
54883;SDS011;40776;52.880;6.016;2023-08-01T13:46:13;3.88;;;1.10;;
54883;SDS011;40776;52.880;6.016;2023-08-01T13:48:40;6.10;;;1.70;;
54883;SDS011;40776;52.880;6.016;2023-08-01T13:51:06;5.05;;;1.13;;
54883;SDS011;40776;52.880;6.016;2023-08-01T13:53:32;1.88;;;0.65;;
54883;SDS011;40776;52.880;6.016;2023-08-01T13:55:59;5.28;;;1.60;;
54883;SDS011;40776;52.880;6.016;2023-08-01T13:58:25;5.63;;;1.92;;
54883;SDS011;40776;52.880;6.016;2023-08-01T14:00:51;5.65;;;2.10;;
54883;SDS011;40776;52.880;6.016;2023-08-01T14:03:17;5.43;;;1.67;;
54883;SDS011;40776;52.880;6.016;2023-08-01T14:05:43;7.22;;;1.83;;
54883;SDS011;40776;52.880;6.016;2023-08-01T14:08:09;8.20;;;1.77;;
54883;SDS011;40776;52.880;6.016;2023-08-01T14:10:35;5.72;;;1.85;;
54883;SDS011;40776;52.880;6.016;2023-08-01T14:13:01;7.32;;;1.95;;
54883;SDS011;40776;52.880;6.016;2023-08-01T14:15:27;6.93;;;2.28;;
54883;SDS011;40776;52.880;6.016;2023-08-01T14:17:53;6.63;;;2.33;;
54883;SDS011;40776;52.880;6.016;2023-08-01T14:20:19;5.75;;;2.25;;
54883;SDS011;40776;52.880;6.016;2023-08-01T14:22:45;5.95;;;1.58;;
54883;SDS011;40776;52.880;6.016;2023-08-01T14:25:11;8.20;;;1.75;;
54883;SDS011;40776;52.880;6.016;2023-08-01T14:27:37;3.97;;;1.35;;
54883;SDS011;40776;52.880;6.016;2023-08-01T14:30:04;4.15;;;1.05;;
54883;SDS011;40776;52.880;6.016;2023-08-01T14:32:31;6.68;;;1.50;;
54883;SDS011;40776;52.880;6.016;2023-08-01T14:34:57;5.18;;;1.23;;
54883;SDS011;40776;52.880;6.016;2023-08-01T14:37:23;4.55;;;1.05;;
54883;SDS011;40776;52.880;6.016;2023-08-01T14:39:51;4.13;;;1.10;;
54883;SDS011;40776;52.880;6.016;2023-08-01T14:42:17;4.78;;;1.60;;
54883;SDS011;40776;52.880;6.016;2023-08-01T14:44:43;3.55;;;1.20;;